createdAt,value
2023-05-05T02:52:57.965Z,0.373
2023-05-05T02:56:27.152Z,0.747
2023-05-05T02:59:20.620Z,1.494
2023-05-05T03:02:24.373Z,2.241
2023-05-05T03:05:02.576Z,3.361
2023-05-05T03:07:56.035Z,4.855
2023-05-05T03:10:39.245Z,7.47
2023-05-05T03:13:17.516Z,11.205
2023-05-05T03:15:50.521Z,16.06
2023-05-05T03:18:28.612Z,23.53
2023-05-05T03:21:01.727Z,33.615
2023-05-05T03:23:50.065Z,48.181
2023-05-05T03:26:48.646Z,69.844
2023-05-05T03:29:31.973Z,95.616
2023-05-05T03:32:15.321Z,130.725
2023-05-05T03:34:48.336Z,170.316
2023-05-05T03:38:27.687Z,233.064
2023-05-05T03:41:05.897Z,282.366
2023-05-05T03:43:44.001Z,354.078
2023-05-05T03:46:17.309Z,442.224
2023-05-05T03:48:50.299Z,537.84
2023-05-05T03:51:23.302Z,627.48
2023-05-05T03:54:01.480Z,711.144
2023-05-05T03:56:49.810Z,806.76
2023-05-05T03:59:28.055Z,932.256
2023-05-05T04:06:55.986Z,1416.312
2023-05-05T04:10:55.758Z,1780.848
2023-05-05T04:14:40.244Z,2103.552
2023-05-05T04:17:13.219Z,2091.6
2023-05-05T04:20:37.326Z,2211.12
2023-05-05T04:23:15.490Z,2306.736
2023-05-05T04:26:54.775Z,2486.016
2023-05-05T04:29:32.922Z,2569.68
2023-05-05T04:39:53.149Z,2748.96
2023-05-05T04:44:53.261Z,2999.952
2023-05-05T04:49:53.376Z,3394.368
2023-05-05T04:54:53.491Z,4111.488
2023-05-05T04:58:48.551Z,5043.744
2023-05-05T05:03:48.645Z,4613.472
2023-05-05T05:09:27.894Z,7027.776
2023-05-05T05:15:53.068Z,9657.216
2023-05-05T05:20:53.199Z,10230.912
2023-05-05T05:25:40.325Z,11473.92
2023-05-05T05:28:23.631Z,11808.576
2023-05-05T05:32:25.150Z,10900.224
2023-05-05T05:35:03.310Z,11378.304
2023-05-05T05:37:46.634Z,13959.936
2023-05-05T05:40:50.272Z,14246.784
2023-05-05T05:43:48.853Z,14724.864
2023-05-05T05:46:21.933Z,13959.936
2023-05-05T05:49:05.097Z,12191.04
2023-05-05T05:51:43.231Z,11712.96
2023-05-05T05:54:47.437Z,15394.176
2023-05-05T05:58:47.251Z,15489.792
2023-05-05T06:01:20.388Z,12716.928
2023-05-05T06:04:04.216Z,16254.72
2023-05-05T06:09:03.398Z,18071.424
2023-05-05T06:14:03.524Z,19027.584
2023-05-05T06:19:03.633Z,19888.128
2023-05-05T06:24:03.760Z,20748.672
2023-05-05T06:29:03.847Z,21991.68
2023-05-05T06:34:03.983Z,22947.84
2023-05-05T06:39:04.078Z,24382.08
2023-05-05T06:44:04.223Z,24190.848
2023-05-05T06:49:04.284Z,25816.32
2023-05-05T06:51:47.611Z,26581.248
2023-05-05T06:56:02.651Z,27537.408
2023-05-05T07:01:33.228Z,28684.8
2023-05-05T07:06:13.806Z,29640.96
2023-05-05T07:10:13.542Z,30788.352
2023-05-05T07:13:32.455Z,31744.512
2023-05-05T07:16:36.188Z,32318.208
2023-05-05T07:19:24.511Z,33083.136
2023-05-05T07:22:17.977Z,33656.832
2023-05-05T07:25:47.181Z,34421.76
2023-05-05T07:28:20.267Z,33274.368
2023-05-05T07:31:50.330Z,33083.136
2023-05-05T07:34:30.168Z,35186.688
2023-05-05T07:37:59.379Z,36334.08
2023-05-05T07:41:02.975Z,36716.544
2023-05-05T07:44:37.249Z,38246.4
2023-05-05T07:47:10.305Z,38820.096
2023-05-05T07:49:42.666Z,34230.528
2023-05-05T07:52:44.022Z,36142.848
2023-05-05T07:55:12.398Z,40349.952
2023-05-05T07:57:45.484Z,40349.952
2023-05-05T08:01:14.614Z,40541.184
2023-05-05T08:05:55.215Z,41879.808
2023-05-05T08:08:43.549Z,42644.736
2023-05-05T08:11:37.032Z,40923.648
2023-05-05T08:15:31.754Z,43409.664
2023-05-05T08:18:20.144Z,44557.056
2023-05-05T08:20:53.223Z,44174.592
2023-05-05T08:23:36.489Z,43792.128
2023-05-05T08:26:55.421Z,43027.2
2023-05-05T08:29:53.993Z,45130.752
2023-05-05T08:32:37.288Z,45704.448
2023-05-05T08:36:53.222Z,47234.304
2023-05-05T08:40:07.211Z,44174.592
2023-05-05T08:42:45.260Z,48381.696
2023-05-05T08:46:10.151Z,48764.16
2023-05-05T08:49:18.898Z,50485.248
2023-05-05T08:52:45.564Z,43218.432
2023-05-05T08:55:18.588Z,44939.52
2023-05-05T08:57:51.712Z,48190.464
2023-05-05T09:00:55.234Z,52015.104
2023-05-05T09:03:28.288Z,51632.64
2023-05-05T09:06:42.224Z,52397.568
2023-05-05T09:09:56.172Z,53927.424
2023-05-05T09:12:29.274Z,48955.392
2023-05-05T09:14:59.886Z,49337.856
2023-05-05T09:17:48.351Z,54309.888
2023-05-05T09:21:07.250Z,54692.352
2023-05-05T09:23:45.456Z,52780.032
2023-05-05T09:27:14.678Z,54309.888
2023-05-05T09:30:45.017Z,50102.784
2023-05-05T09:33:38.496Z,55457.28
2023-05-05T09:36:31.998Z,54309.888
2023-05-05T09:39:06.411Z,52015.104
2023-05-05T09:41:59.821Z,54309.888
2023-05-05T09:45:23.911Z,52780.032
2023-05-05T09:48:12.260Z,53162.496
2023-05-05T09:51:12.614Z,51250.176
2023-05-05T09:53:50.825Z,53927.424
2023-05-05T09:56:44.309Z,55457.28
2023-05-05T09:59:32.662Z,54309.888
2023-05-05T10:02:05.738Z,52397.568
2023-05-05T10:05:09.901Z,52015.104
2023-05-05T10:08:08.468Z,56987.136
2023-05-05T10:10:56.932Z,50485.248
2023-05-05T10:13:27.355Z,56987.136
2023-05-05T10:16:17.072Z,55074.816
2023-05-05T10:19:00.378Z,57752.064
2023-05-05T10:21:58.926Z,60811.776
2023-05-05T10:24:31.988Z,60429.312
2023-05-05T10:27:05.072Z,56987.136
2023-05-05T10:29:45.705Z,58899.456
2023-05-05T10:32:50.072Z,63489.024
2023-05-05T10:35:11.940Z,55457.28
2023-05-05T10:37:46.194Z,51250.176
2023-05-05T10:41:26.694Z,53544.96
2023-05-05T10:44:13.277Z,50867.712
2023-05-05T10:47:26.869Z,46086.912
2023-05-05T10:50:12.607Z,58516.992
2023-05-05T10:52:55.955Z,59664.384
2023-05-05T10:55:29.731Z,52397.568
2023-05-05T10:58:05.509Z,52015.104
2023-05-05T11:00:50.840Z,64253.952
2023-05-05T11:03:32.806Z,44939.52
2023-05-05T11:06:07.743Z,32700.672
2023-05-05T11:08:45.161Z,56604.672
2023-05-05T11:11:32.722Z,46086.912
2023-05-05T11:14:44.827Z,55839.744
2023-05-05T11:17:17.380Z,58516.992
2023-05-05T11:19:50.816Z,52780.032
2023-05-05T11:22:21.767Z,62724.096
2023-05-05T11:25:36.002Z,64636.416
2023-05-05T11:28:25.554Z,65401.344
2023-05-05T11:32:36.426Z,61576.704
2023-05-05T11:35:19.696Z,62724.096
2023-05-05T11:38:28.775Z,55839.744
2023-05-05T11:41:42.584Z,55074.816
2023-05-05T11:44:20.815Z,59281.92
2023-05-05T11:47:19.368Z,61194.24
2023-05-05T11:50:00.567Z,28493.568
2023-05-05T11:52:34.926Z,37290.24
2023-05-05T11:55:11.215Z,51250.176
2023-05-05T11:57:50.570Z,60429.312
2023-05-05T12:00:22.090Z,47425.536
2023-05-05T12:03:25.467Z,34421.76
2023-05-05T12:07:10.909Z,44939.52
2023-05-05T12:10:25.672Z,63871.488
2023-05-05T12:13:03.761Z,59281.92
2023-05-05T12:15:34.094Z,31170.816
2023-05-05T12:18:05.253Z,27919.872
2023-05-05T12:21:23.264Z,34421.76
2023-05-05T12:24:14.678Z,30597.12
2023-05-05T12:26:54.417Z,31935.744
2023-05-05T12:29:26.939Z,37099.008
2023-05-05T12:32:02.309Z,43792.128
2023-05-05T12:34:40.543Z,40349.952
2023-05-05T12:37:27.607Z,35951.616
2023-05-05T12:40:26.147Z,32126.976
2023-05-05T12:43:09.549Z,44557.056
2023-05-05T12:45:47.115Z,34230.528
2023-05-05T12:48:17.291Z,60429.312
2023-05-05T12:50:55.938Z,54692.352
2023-05-05T12:53:42.261Z,33465.6
2023-05-05T12:58:43.274Z,35569.152
2023-05-05T13:01:21.928Z,43792.128
2023-05-05T13:04:27.373Z,70373.376
2023-05-05T13:07:15.606Z,69225.984
2023-05-05T13:09:52.027Z,69225.984
2023-05-05T13:12:24.994Z,32509.44
2023-05-05T13:14:59.541Z,56987.136
2023-05-05T13:17:41.672Z,24668.928
2023-05-05T13:20:14.735Z,25816.32
2023-05-05T13:22:50.489Z,26390.016
2023-05-05T13:26:24.766Z,26963.712
2023-05-05T13:28:57.974Z,23043.456
2023-05-05T13:31:50.442Z,23808.384
2023-05-05T13:34:33.645Z,25433.856
2023-05-05T13:37:06.212Z,47425.536
2023-05-05T13:39:45.405Z,26963.712
2023-05-05T13:42:31.135Z,26007.552
2023-05-05T13:45:28.710Z,24095.232
2023-05-05T13:48:31.896Z,24477.696
2023-05-05T13:53:02.295Z,25625.088
2023-05-05T13:55:32.522Z,28111.104
2023-05-05T13:58:35.397Z,36525.312
2023-05-05T14:01:14.020Z,26963.712
2023-05-05T14:04:04.653Z,25433.856
2023-05-05T14:06:56.937Z,29067.264
2023-05-05T14:09:39.892Z,30979.584
2023-05-05T14:14:05.187Z,25433.856
2023-05-05T14:16:43.368Z,26772.48
2023-05-05T14:20:26.937Z,21322.368
2023-05-05T14:23:30.491Z,21035.52
2023-05-05T14:27:25.132Z,20748.672
2023-05-05T14:30:39.015Z,20174.976
2023-05-05T14:33:17.158Z,18645.12
2023-05-05T14:36:25.970Z,18453.888
2023-05-05T14:39:09.255Z,18453.888
2023-05-05T14:44:15.330Z,18071.424
2023-05-05T14:46:58.530Z,16828.416
2023-05-05T14:49:46.978Z,15394.176
2023-05-05T14:52:25.005Z,15298.56
2023-05-05T14:55:33.857Z,14820.48
2023-05-05T14:58:06.955Z,14342.4
2023-05-05T15:00:40.026Z,13195.008
2023-05-05T15:03:13.206Z,11808.576
2023-05-05T15:05:46.232Z,10900.224
2023-05-05T15:08:59.993Z,10948.032
2023-05-05T15:11:33.074Z,10469.952
2023-05-05T15:14:06.126Z,9561.6
2023-05-05T15:16:39.185Z,8796.672
2023-05-05T15:20:38.870Z,8318.592
2023-05-05T15:24:04.444Z,7840.512
2023-05-05T15:26:56.468Z,7888.32
2023-05-05T15:29:29.700Z,8270.784
2023-05-05T15:32:08.057Z,8748.864
2023-05-05T15:34:51.346Z,8127.36
2023-05-05T15:37:24.562Z,8462.016
2023-05-05T15:39:57.673Z,8987.904
2023-05-05T15:42:30.831Z,8509.824
2023-05-05T15:45:14.170Z,6884.352
2023-05-05T15:48:53.518Z,6454.08
2023-05-05T15:51:47.074Z,5593.536
2023-05-05T15:54:50.861Z,4231.008
2023-05-05T15:57:29.173Z,3346.56
2023-05-05T16:00:03.830Z,2892.384
2023-05-05T16:02:35.579Z,2294.784
2023-05-05T16:05:08.706Z,1517.904
2023-05-05T16:07:46.849Z,1039.824
2023-05-05T16:10:24.559Z,1057.752
2023-05-05T16:13:07.915Z,1308.744
2023-05-05T16:15:41.007Z,1577.664
2023-05-05T16:18:19.199Z,2223.072
2023-05-05T16:21:02.486Z,3298.752
2023-05-05T16:23:55.926Z,4589.568
2023-05-05T16:27:04.687Z,5856.48
2023-05-05T16:29:37.849Z,6693.12
2023-05-05T16:32:26.381Z,7219.008
2023-05-05T16:35:14.749Z,7458.048
2023-05-05T16:37:58.063Z,7840.512
2023-05-05T16:41:22.210Z,8127.36
2023-05-05T16:44:15.657Z,7936.128
2023-05-05T16:47:29.803Z,7744.896
2023-05-05T16:50:02.720Z,7123.392
2023-05-05T16:52:38.456Z,6262.848
2023-05-05T16:55:21.761Z,5258.88
2023-05-05T16:58:10.207Z,4637.376
2023-05-05T17:02:04.925Z,3991.968
2023-05-05T17:04:48.138Z,3657.312
2023-05-05T17:07:21.156Z,3298.752
2023-05-05T17:09:59.449Z,2581.632
2023-05-05T17:12:47.796Z,1792.8
2023-05-05T17:15:20.873Z,1332.648
2023-05-05T17:17:59.050Z,1051.776
2023-05-05T17:20:37.709Z,854.568
2023-05-05T17:23:10.753Z,714.132
2023-05-05T17:27:56.379Z,540.828
2023-05-05T17:30:34.562Z,490.032
2023-05-05T17:33:07.568Z,510.948
2023-05-05T17:35:50.798Z,561.744
2023-05-05T17:38:54.530Z,522.9
2023-05-05T17:41:58.179Z,519.912
2023-05-05T17:45:01.830Z,666.324
2023-05-05T17:47:40.026Z,848.592
2023-05-05T17:50:23.397Z,1015.92
2023-05-05T17:53:32.059Z,1027.872
2023-05-05T17:56:40.817Z,854.568
2023-05-05T17:59:54.669Z,693.216
2023-05-05T18:03:13.701Z,561.744
2023-05-05T18:06:02.002Z,442.224
2023-05-05T18:12:19.592Z,274.896
2023-05-05T18:14:50.132Z,216.63
2023-05-05T18:17:23.169Z,177.039
2023-05-05T18:20:01.451Z,162.099
2023-05-05T18:22:44.710Z,138.942
2023-05-05T18:25:27.993Z,109.062
2023-05-05T18:28:11.282Z,82.17
2023-05-05T18:31:09.868Z,58.639
2023-05-05T18:34:01.454Z,45.567
2023-05-05T18:37:00.154Z,35.482
2023-05-05T18:39:48.370Z,30.253
2023-05-05T18:43:17.506Z,22.783
2023-05-05T18:46:05.877Z,17.181
2023-05-05T18:49:31.419Z,11.578
2023-05-05T18:52:08.173Z,8.964
2023-05-05T18:54:41.268Z,6.723
2023-05-05T18:57:24.533Z,4.855
2023-05-05T19:00:45.246Z,3.361
2023-05-05T19:03:18.318Z,2.241
2023-05-05T19:07:21.108Z,1.12
2023-05-05T19:11:23.262Z,0.373
2023-05-05T19:17:15.361Z,0
